createdAt,value
2023-05-14T00:00:02.714Z,79.6034
2023-05-14T00:01:03.787Z,79.5970
2023-05-14T00:02:04.922Z,79.5596
2023-05-14T00:03:06.239Z,79.5375
2023-05-14T00:04:07.612Z,79.6187
2023-05-14T00:05:09.681Z,79.7032
2023-05-14T00:06:10.793Z,79.4168
2023-05-14T00:07:11.897Z,79.5347
2023-05-14T00:08:12.893Z,79.7199
2023-05-14T00:09:14.057Z,79.8296
2023-05-14T00:10:15.084Z,79.4700
2023-05-14T00:11:16.155Z,78.9607
2023-05-14T00:12:17.226Z,78.6705
2023-05-14T00:13:18.293Z,78.7224
2023-05-14T00:14:19.423Z,78.8184
2023-05-14T00:15:20.467Z,78.9604
2023-05-14T00:16:21.579Z,79.2938
2023-05-14T00:17:22.688Z,79.1995
2023-05-14T00:18:23.795Z,79.2427
2023-05-14T00:19:24.875Z,79.2963
2023-05-14T00:20:26.048Z,79.3825
2023-05-14T00:21:27.140Z,79.4496
2023-05-14T00:22:28.272Z,79.3689
2023-05-14T00:23:29.391Z,79.1045
2023-05-14T00:24:30.542Z,78.9248
2023-05-14T00:25:31.660Z,79.2437
2023-05-14T00:26:32.684Z,79.4000
2023-05-14T00:27:33.748Z,79.4472
2023-05-14T00:28:34.886Z,79.5070
2023-05-14T00:29:35.992Z,79.4010
2023-05-14T00:30:37.124Z,79.4380
2023-05-14T00:31:38.142Z,79.6061
2023-05-14T00:32:39.340Z,79.2766
2023-05-14T00:33:40.332Z,79.2796
2023-05-14T00:34:41.492Z,79.4792
2023-05-14T00:35:42.557Z,79.6360
2023-05-14T00:36:43.562Z,79.2514
2023-05-14T00:37:44.542Z,79.4481
2023-05-14T00:38:45.687Z,79.3527
2023-05-14T00:39:46.697Z,79.4339
2023-05-14T00:40:47.880Z,79.6245
2023-05-14T00:41:48.878Z,79.4869
2023-05-14T00:42:49.986Z,79.0405
2023-05-14T00:43:51.053Z,79.1011
2023-05-14T00:44:52.100Z,79.1937
2023-05-14T00:45:53.339Z,79.2414
2023-05-14T00:46:54.493Z,79.4679
2023-05-14T00:47:55.461Z,79.4137
2023-05-14T00:48:56.532Z,79.6200
2023-05-14T00:49:57.743Z,79.6000
2023-05-14T00:50:58.723Z,79.5051
2023-05-14T00:51:59.856Z,79.4785
2023-05-14T00:53:00.886Z,79.7496
2023-05-14T00:54:02.031Z,79.8236
2023-05-14T00:55:03.055Z,79.7728
2023-05-14T00:56:04.111Z,80.0094
2023-05-14T00:57:05.243Z,79.8481
2023-05-14T00:58:06.300Z,79.8826
2023-05-14T00:59:07.397Z,79.8967
2023-05-14T01:00:08.473Z,80.0512
2023-05-14T01:01:09.716Z,79.8553
2023-05-14T01:02:10.705Z,79.7473
2023-05-14T01:03:12.010Z,79.5452
2023-05-14T01:04:13.181Z,79.9546
2023-05-14T01:05:14.310Z,80.3589
2023-05-14T01:06:15.469Z,80.4402
2023-05-14T01:07:16.491Z,80.5137
2023-05-14T01:08:17.628Z,80.5356
2023-05-14T01:09:18.724Z,80.3525
2023-05-14T01:10:19.809Z,80.3401
2023-05-14T01:11:20.953Z,80.3348
2023-05-14T01:12:21.960Z,80.1552
2023-05-14T01:13:23.144Z,80.2932
2023-05-14T01:14:24.117Z,80.5086
2023-05-14T01:15:25.238Z,80.6925
2023-05-14T01:16:26.365Z,80.7354
2023-05-14T01:17:28.408Z,80.5638
2023-05-14T01:18:29.488Z,80.5629
2023-05-14T01:19:30.553Z,80.5344
2023-05-14T01:20:31.681Z,80.2550
2023-05-14T01:21:32.713Z,80.3465
2023-05-14T01:22:34.840Z,80.2435
2023-05-14T01:23:35.976Z,80.3268
2023-05-14T01:24:36.978Z,80.4685
2023-05-14T01:25:38.074Z,80.3523
2023-05-14T01:26:39.109Z,80.1087
2023-05-14T01:27:40.245Z,79.7785
2023-05-14T01:28:41.303Z,79.6202
2023-05-14T01:29:43.399Z,79.5745
2023-05-14T01:30:44.509Z,79.7720
2023-05-14T01:31:45.592Z,79.8652
2023-05-14T01:32:46.707Z,79.9241
2023-05-14T01:33:48.832Z,80.1290
2023-05-14T01:34:49.851Z,80.1052
2023-05-14T01:35:50.988Z,80.2764
2023-05-14T01:36:52.028Z,80.2587
2023-05-14T01:37:53.168Z,80.3038
2023-05-14T01:38:54.230Z,80.0856
2023-05-14T01:39:55.321Z,79.9902
2023-05-14T01:40:56.362Z,80.2736
2023-05-14T01:41:57.524Z,80.5090
2023-05-14T01:42:58.623Z,80.5438
2023-05-14T01:43:59.728Z,80.3502
2023-05-14T01:45:00.858Z,80.2494
2023-05-14T01:46:01.965Z,79.9537
2023-05-14T01:47:03.041Z,79.6256
2023-05-14T01:48:04.241Z,79.5089
2023-05-14T01:49:06.256Z,79.5694
2023-05-14T01:50:07.461Z,79.4971
2023-05-14T01:51:08.440Z,79.6382
2023-05-14T01:52:09.581Z,79.6865
2023-05-14T01:53:10.598Z,79.5081
2023-05-14T01:54:11.762Z,79.3604
2023-05-14T01:55:12.747Z,79.3706
2023-05-14T01:56:13.913Z,79.6650
2023-05-14T01:57:14.938Z,79.5102
2023-05-14T01:58:16.043Z,78.8988
2023-05-14T01:59:17.072Z,78.7450
2023-05-14T02:00:18.201Z,78.4939
2023-05-14T02:01:19.313Z,78.6374
2023-05-14T02:02:20.426Z,79.0186
2023-05-14T02:03:21.500Z,79.0768
2023-05-14T02:04:22.765Z,79.0448
2023-05-14T02:05:23.825Z,79.0015
2023-05-14T02:06:24.921Z,79.3411
2023-05-14T02:07:25.983Z,79.3666
2023-05-14T02:08:27.117Z,79.2527
2023-05-14T02:09:28.117Z,79.2067
2023-05-14T02:10:29.290Z,79.1165
2023-05-14T02:11:30.381Z,79.2153
2023-05-14T02:12:31.483Z,78.8921
2023-05-14T02:13:32.568Z,78.3299
2023-05-14T02:14:33.635Z,78.1910
2023-05-14T02:15:34.662Z,78.7344
2023-05-14T02:16:35.770Z,78.8171
2023-05-14T02:17:36.963Z,78.7909
2023-05-14T02:18:38.142Z,79.1802
2023-05-14T02:19:39.162Z,78.9541
2023-05-14T02:20:40.267Z,78.6660
2023-05-14T02:21:41.299Z,78.5862
2023-05-14T02:22:42.464Z,78.5606
2023-05-14T02:23:43.468Z,78.7186
2023-05-14T02:24:44.503Z,78.9481
2023-05-14T02:25:45.644Z,78.5664
2023-05-14T02:26:46.757Z,78.5635
2023-05-14T02:27:47.844Z,78.8575
2023-05-14T02:28:48.959Z,79.0488
2023-05-14T02:29:49.977Z,78.8108
2023-05-14T02:30:51.210Z,78.2727
2023-05-14T02:31:53.281Z,78.4592
2023-05-14T02:32:54.495Z,78.8130
2023-05-14T02:33:55.501Z,78.5633
2023-05-14T02:34:56.554Z,78.3714
2023-05-14T02:35:57.680Z,78.3748
2023-05-14T02:36:58.789Z,78.4952
2023-05-14T02:37:59.762Z,78.9839
2023-05-14T02:39:00.831Z,79.2687
2023-05-14T02:40:01.862Z,79.3079
2023-05-14T02:41:02.916Z,79.6703
2023-05-14T02:42:03.996Z,79.6851
2023-05-14T02:43:05.125Z,79.4453
2023-05-14T02:44:06.227Z,79.3206
2023-05-14T02:45:07.356Z,79.0071
2023-05-14T02:46:08.382Z,78.8375
2023-05-14T02:47:09.657Z,78.8214
2023-05-14T02:48:10.857Z,78.6212
2023-05-14T02:49:11.905Z,78.3367
2023-05-14T02:50:12.982Z,78.0200
2023-05-14T02:51:14.004Z,77.6479
2023-05-14T02:52:15.098Z,78.3807
2023-05-14T02:53:16.129Z,79.0081
2023-05-14T02:54:17.228Z,79.2947
2023-05-14T02:55:18.342Z,79.9261
2023-05-14T02:56:19.477Z,79.9651
2023-05-14T02:57:20.595Z,79.7486
2023-05-14T02:58:26.018Z,80.0820
2023-05-14T02:59:22.102Z,80.1417
2023-05-14T03:00:23.750Z,79.8404
2023-05-14T03:01:25.536Z,80.1300
2023-05-14T03:02:27.941Z,80.2953
2023-05-14T03:03:29.359Z,80.6260
2023-05-14T03:04:30.920Z,80.7261
2023-05-14T03:05:32.063Z,80.8446
2023-05-14T03:06:33.095Z,80.9334
2023-05-14T03:07:34.189Z,81.0715
2023-05-14T03:08:35.408Z,80.9865
2023-05-14T03:09:38.301Z,81.0049
2023-05-14T03:10:39.522Z,81.0729
2023-05-14T03:11:40.633Z,80.9988
2023-05-14T03:12:41.799Z,81.0117
2023-05-14T03:13:42.909Z,80.8850
2023-05-14T03:14:43.986Z,80.7169
2023-05-14T03:15:45.075Z,80.7196
2023-05-14T03:16:46.197Z,80.8354
2023-05-14T03:17:48.342Z,80.5823
2023-05-14T03:18:49.359Z,80.4785
2023-05-14T03:19:50.487Z,80.3610
2023-05-14T03:20:51.621Z,80.3069
2023-05-14T03:21:52.681Z,80.3135
2023-05-14T03:22:54.111Z,80.3648
2023-05-14T03:23:55.301Z,80.1541
2023-05-14T03:24:56.373Z,80.1735
2023-05-14T03:25:57.474Z,79.8489
2023-05-14T03:26:58.544Z,79.6736
2023-05-14T03:27:59.681Z,79.4830
2023-05-14T03:29:00.673Z,79.2767
2023-05-14T03:30:02.104Z,79.4335
2023-05-14T03:31:03.119Z,79.1317
2023-05-14T03:42:43.676Z,78.9018
2023-05-14T03:42:43.676Z,78.7874
2023-05-14T03:42:43.676Z,78.7430
2023-05-14T03:42:54.766Z,77.8563
2023-05-14T03:43:55.862Z,77.9067
2023-05-14T03:44:56.931Z,78.0567
2023-05-14T03:45:58.033Z,78.1691
2023-05-14T03:46:59.031Z,78.5309
2023-05-14T03:48:00.309Z,78.2935
2023-05-14T03:49:01.422Z,77.9626
2023-05-14T03:50:02.602Z,77.4480
2023-05-14T03:51:03.643Z,77.4874
2023-05-14T03:52:04.775Z,77.4068
2023-05-14T03:53:05.908Z,77.2765
2023-05-14T03:54:07.016Z,77.1541
2023-05-14T03:55:08.098Z,77.7179
2023-05-14T03:56:09.099Z,78.0078
2023-05-14T03:57:10.183Z,77.7125
2023-05-14T03:58:11.290Z,77.3725
2023-05-14T03:59:12.357Z,77.4840
2023-05-14T04:00:13.869Z,77.9012
2023-05-14T04:01:14.923Z,78.4393
2023-05-14T04:02:16.113Z,78.9931
2023-05-14T04:03:19.809Z,79.2353
2023-05-14T04:04:19.211Z,79.5400
2023-05-14T04:05:20.575Z,79.5911
2023-05-14T04:06:22.752Z,79.6974
2023-05-14T04:07:24.216Z,79.4858
2023-05-14T04:08:26.279Z,79.5831
2023-05-14T04:09:27.761Z,79.4404
2023-05-14T04:11:33.934Z,79.7640
2023-05-14T04:12:34.586Z,79.8507
2023-05-14T04:13:36.602Z,79.6679
2023-05-14T04:14:38.807Z,79.2616
2023-05-14T04:15:40.497Z,79.2474
2023-05-14T04:16:42.097Z,79.6900
2023-05-14T04:17:44.520Z,79.5621
2023-05-14T04:18:46.450Z,79.3740
2023-05-14T04:19:47.977Z,79.4514
2023-05-14T04:20:49.712Z,79.3186
2023-05-14T04:21:52.041Z,79.0948
2023-05-14T04:22:53.410Z,79.1277
2023-05-14T04:23:54.652Z,79.2093
2023-05-14T04:24:55.893Z,79.0548
2023-05-14T04:25:57.013Z,79.4103
2023-05-14T04:26:58.489Z,79.6894
2023-05-14T04:28:00.121Z,79.6458
2023-05-14T04:29:01.304Z,79.4741
2023-05-14T04:30:02.649Z,79.6348
2023-05-14T04:31:03.900Z,79.9764
2023-05-14T04:32:05.218Z,80.0245
2023-05-14T04:33:07.356Z,79.7094
2023-05-14T04:34:08.464Z,79.7154
2023-05-14T04:35:09.696Z,79.3027
2023-05-14T04:36:11.067Z,78.7137
2023-05-14T04:37:12.272Z,78.8913
2023-05-14T04:38:13.445Z,78.7583
2023-05-14T04:39:14.607Z,78.3284
2023-05-14T04:40:15.805Z,78.1473
2023-05-14T04:41:16.947Z,78.1121
2023-05-14T04:42:18.165Z,77.8611
2023-05-14T04:43:19.401Z,77.6591
2023-05-14T04:44:20.565Z,78.1244
2023-05-14T04:45:21.729Z,77.8992
2023-05-14T04:46:22.987Z,78.0704
2023-05-14T04:47:24.163Z,78.4506
2023-05-14T04:48:25.438Z,78.6756
2023-05-14T04:49:26.665Z,79.2532
2023-05-14T04:50:27.992Z,79.6162
2023-05-14T04:51:29.149Z,79.7106
2023-05-14T04:52:30.594Z,79.5761
2023-05-14T04:53:31.720Z,79.7146
2023-05-14T04:54:33.059Z,79.4650
2023-05-14T04:55:35.312Z,79.2497
2023-05-14T04:56:36.522Z,78.9522
2023-05-14T04:57:37.836Z,78.9853
2023-05-14T04:58:39.024Z,78.9774
2023-05-14T04:59:40.165Z,78.7627
2023-05-14T05:00:41.334Z,78.5153
2023-05-14T05:01:42.631Z,78.4785
2023-05-14T05:02:44.868Z,77.5649
2023-05-14T05:03:46.185Z,77.5333
2023-05-14T05:04:47.505Z,77.3911
2023-05-14T05:05:48.736Z,77.2165
2023-05-14T05:06:49.865Z,77.3976
2023-05-14T05:07:51.100Z,77.7506
2023-05-14T05:08:52.349Z,77.0840
2023-05-14T05:09:53.847Z,76.8294
2023-05-14T05:10:55.235Z,76.0369
2023-05-14T05:11:56.427Z,75.8754
2023-05-14T05:12:57.629Z,75.8295
2023-05-14T05:13:58.755Z,76.2716
2023-05-14T05:14:59.968Z,76.5047
2023-05-14T05:16:01.232Z,76.5119
2023-05-14T05:17:02.592Z,76.6079
2023-05-14T05:18:04.004Z,76.8877
2023-05-14T05:19:06.329Z,76.8046
2023-05-14T05:20:08.085Z,75.9396
2023-05-14T05:21:09.171Z,75.5512
2023-05-14T05:22:10.358Z,75.2047
2023-05-14T05:23:11.526Z,75.8743
2023-05-14T05:24:12.754Z,76.7685
2023-05-14T05:25:14.484Z,77.2105
2023-05-14T05:26:15.608Z,77.4141
2023-05-14T05:27:16.965Z,77.6332
2023-05-14T05:28:18.299Z,78.2798
2023-05-14T05:29:19.805Z,77.4728
2023-05-14T05:30:20.920Z,76.8025
2023-05-14T05:31:22.183Z,76.5400
2023-05-14T05:32:23.488Z,76.8376
2023-05-14T05:33:24.696Z,77.3781
2023-05-14T05:34:25.908Z,77.5844
2023-05-14T05:35:26.984Z,78.2116
2023-05-14T05:36:28.356Z,78.0037
2023-05-14T05:37:29.622Z,77.1524
2023-05-14T05:38:31.005Z,77.0209
2023-05-14T05:39:32.421Z,76.9286
2023-05-14T05:40:33.603Z,76.7757
2023-05-14T05:41:34.781Z,76.1352
2023-05-14T05:42:36.032Z,75.6329
2023-05-14T05:43:37.318Z,75.8701
2023-05-14T05:44:38.613Z,75.4051
2023-05-14T05:45:39.771Z,75.8234
2023-05-14T05:46:41.018Z,75.3804
2023-05-14T05:47:42.287Z,76.0330
2023-05-14T05:48:43.473Z,76.0298
2023-05-14T05:49:44.923Z,75.7344
2023-05-14T05:50:46.166Z,75.3549
2023-05-14T05:51:47.303Z,74.7491
2023-05-14T05:52:48.481Z,74.7696
2023-05-14T05:53:49.773Z,75.1955
2023-05-14T05:54:51.020Z,75.2533
2023-05-14T05:55:52.190Z,75.0498
2023-05-14T05:56:53.286Z,75.7339
2023-05-14T05:57:54.578Z,75.7115
2023-05-14T05:58:55.942Z,75.2698
2023-05-14T05:59:57.105Z,74.6121
2023-05-14T06:00:58.425Z,74.5523
2023-05-14T06:01:59.691Z,74.5761
2023-05-14T06:03:01.049Z,74.2782
2023-05-14T06:04:02.236Z,73.8780
2023-05-14T06:05:03.365Z,73.8589
2023-05-14T06:06:04.437Z,73.8370
2023-05-14T06:07:05.512Z,73.5677
2023-05-14T06:08:06.734Z,73.6178
2023-05-14T06:09:07.940Z,73.2705
2023-05-14T06:10:09.197Z,73.0935
2023-05-14T06:11:10.311Z,72.7097
2023-05-14T06:12:11.541Z,72.7949
2023-05-14T06:13:12.793Z,73.4020
2023-05-14T06:14:14.086Z,74.2835
2023-05-14T06:15:15.433Z,74.7082
2023-05-14T06:16:16.799Z,75.2920
2023-05-14T06:17:17.899Z,75.2167
2023-05-14T06:18:20.065Z,76.1638
2023-05-14T06:19:21.484Z,76.8589
2023-05-14T06:20:22.942Z,77.2180
2023-05-14T06:21:25.151Z,77.6840
2023-05-14T06:22:26.651Z,77.5142
2023-05-14T06:23:27.962Z,77.8925
2023-05-14T06:24:29.087Z,78.0976
2023-05-14T06:25:30.375Z,78.0451
2023-05-14T06:26:31.438Z,77.3372
2023-05-14T06:27:33.982Z,77.7463
2023-05-14T06:28:35.265Z,77.8235
2023-05-14T06:29:36.541Z,77.4383
2023-05-14T06:30:38.319Z,77.5519
2023-05-14T06:31:39.669Z,77.7322
2023-05-14T06:32:41.028Z,77.6335
2023-05-14T06:33:43.388Z,77.2947
2023-05-14T06:34:44.685Z,77.6869
2023-05-14T06:35:45.946Z,77.6401
2023-05-14T06:36:47.372Z,77.4583
2023-05-14T06:37:48.540Z,77.6646
2023-05-14T06:38:49.672Z,77.6902
2023-05-14T06:39:50.816Z,77.6557
2023-05-14T06:40:52.096Z,77.6037
2023-05-14T06:41:53.328Z,77.2954
2023-05-14T06:42:54.548Z,77.2709
2023-05-14T06:43:55.842Z,77.3817
2023-05-14T06:44:57.131Z,77.0527
2023-05-14T06:45:58.553Z,77.5105
2023-05-14T06:46:59.860Z,77.2347
2023-05-14T06:48:01.571Z,76.8696
2023-05-14T06:49:03.798Z,77.0377
2023-05-14T06:50:04.906Z,77.2254
2023-05-14T06:51:06.171Z,77.1637
2023-05-14T06:52:07.441Z,76.7979
2023-05-14T06:53:08.594Z,76.9095
2023-05-14T06:54:10.028Z,77.8887
2023-05-14T06:55:11.401Z,78.5708
2023-05-14T06:56:12.469Z,78.5816
2023-05-14T06:57:14.823Z,78.5000
2023-05-14T06:58:16.234Z,77.9491
2023-05-14T06:59:18.570Z,77.3116
2023-05-14T07:00:19.850Z,77.6910
2023-05-14T07:01:21.208Z,78.2021
2023-05-14T07:02:23.435Z,78.3904
2023-05-14T07:03:24.750Z,78.7077
2023-05-14T07:04:25.959Z,79.0627
2023-05-14T07:05:28.232Z,79.2273
2023-05-14T07:06:30.543Z,79.8472
2023-05-14T07:07:31.837Z,80.9067
2023-05-14T07:08:33.031Z,79.5128
2023-05-14T07:09:34.267Z,78.2651
2023-05-14T07:10:35.650Z,77.8891
2023-05-14T07:11:36.800Z,78.5898
2023-05-14T07:12:37.958Z,78.5246
2023-05-14T07:13:39.144Z,77.8001
2023-05-14T07:14:40.450Z,77.1895
2023-05-14T07:16:54.973Z,77.6196
2023-05-14T07:17:05.416Z,77.8373
2023-05-14T07:18:06.960Z,77.5263
2023-05-14T07:19:09.213Z,76.9737
2023-05-14T07:20:11.363Z,76.2403
2023-05-14T07:21:12.959Z,77.3125
2023-05-14T07:22:14.507Z,77.0398
2023-05-14T07:23:16.977Z,76.4661
2023-05-14T07:24:17.237Z,76.9597
2023-05-14T07:25:19.405Z,78.4214
2023-05-14T07:26:21.285Z,77.6129
2023-05-14T07:27:23.947Z,78.0447
2023-05-14T07:28:26.409Z,78.1469
2023-05-14T07:29:28.815Z,78.4666
2023-05-14T07:30:28.227Z,78.7850
2023-05-14T07:31:29.797Z,79.9257
2023-05-14T07:32:32.215Z,79.1532
2023-05-14T07:33:33.651Z,78.6018
2023-05-14T07:34:34.978Z,78.3271
2023-05-14T07:35:36.570Z,79.2207
2023-05-14T07:36:38.564Z,79.2044
2023-05-14T07:37:40.542Z,80.0729
2023-05-14T07:38:43.278Z,80.6651
2023-05-14T07:39:41.935Z,80.8111
2023-05-14T07:40:43.546Z,80.5902
2023-05-14T07:41:45.250Z,81.1331
2023-05-14T07:42:46.716Z,81.1084
2023-05-14T07:43:48.045Z,81.0901
2023-05-14T07:44:50.149Z,81.0014
2023-05-14T07:45:51.563Z,81.2510
2023-05-14T07:46:52.925Z,81.2855
2023-05-14T07:47:54.440Z,81.2291
2023-05-14T07:48:55.812Z,81.2927
2023-05-14T07:49:57.552Z,81.2616
2023-05-14T07:50:59.985Z,81.0741
2023-05-14T07:52:01.515Z,80.4389
2023-05-14T07:53:03.381Z,81.0599
2023-05-14T07:54:03.241Z,81.0249
2023-05-14T07:55:04.845Z,80.0463
2023-05-14T07:56:06.315Z,80.6773
2023-05-14T07:57:07.581Z,79.9764
2023-05-14T07:58:09.003Z,80.0317
2023-05-14T07:59:10.576Z,79.2911
2023-05-14T08:00:11.904Z,78.6401
2023-05-14T08:01:14.084Z,78.5207
2023-05-14T08:02:16.439Z,78.1755
2023-05-14T08:03:19.361Z,77.9069
2023-05-14T08:04:19.533Z,78.2925
2023-05-14T08:05:21.269Z,78.1876
2023-05-14T08:06:22.767Z,77.8210
2023-05-14T08:07:26.556Z,77.3057
2023-05-14T08:08:28.600Z,77.3770
2023-05-14T08:09:30.089Z,77.2406
2023-05-14T08:10:31.960Z,77.8116
2023-05-14T08:11:35.101Z,76.8964
2023-05-14T08:12:36.212Z,75.2486
2023-05-14T08:13:38.195Z,74.4367
2023-05-14T08:14:39.432Z,74.2367
2023-05-14T08:15:40.753Z,74.1972
2023-05-14T08:16:42.301Z,74.2333
2023-05-14T08:17:44.366Z,73.9859
2023-05-14T08:18:45.956Z,73.8440
2023-05-14T08:19:47.462Z,73.7565
2023-05-14T08:20:49.003Z,73.7224
2023-05-14T08:21:50.135Z,75.1131
2023-05-14T08:22:51.467Z,74.9457
2023-05-14T08:23:52.573Z,73.7599
2023-05-14T08:24:53.739Z,74.4429
2023-05-14T08:26:04.512Z,74.8532
2023-05-14T08:26:56.273Z,74.5548
2023-05-14T08:27:57.366Z,73.3696
2023-05-14T08:28:58.590Z,73.7689
2023-05-14T08:30:01.040Z,74.7559
2023-05-14T08:31:02.250Z,73.5187
2023-05-14T08:32:08.744Z,74.0075
2023-05-14T08:33:03.959Z,74.7406
2023-05-14T08:34:05.031Z,74.9976
2023-05-14T08:35:06.088Z,73.5287
2023-05-14T08:36:07.178Z,73.5736
2023-05-14T08:37:08.424Z,74.9243
2023-05-14T08:38:09.536Z,74.3847
2023-05-14T08:39:10.801Z,74.2907
2023-05-14T08:40:11.854Z,74.3612
2023-05-14T08:41:12.913Z,74.5407
2023-05-14T08:42:14.058Z,74.0637
2023-05-14T08:43:15.058Z,73.5086
2023-05-14T08:44:16.126Z,73.5433
2023-05-14T08:45:17.152Z,73.2804
2023-05-14T08:46:18.299Z,73.5664
2023-05-14T08:47:19.308Z,74.8871
2023-05-14T08:48:20.528Z,74.0603
2023-05-14T08:49:22.780Z,73.5223
2023-05-14T08:50:23.974Z,72.8511
2023-05-14T08:51:24.996Z,72.8165
2023-05-14T08:52:26.050Z,72.4644
2023-05-14T08:53:27.224Z,72.4853
2023-05-14T08:54:28.334Z,72.2950
2023-05-14T08:55:29.434Z,72.2163
2023-05-14T08:56:30.500Z,73.0747
2023-05-14T08:57:31.825Z,73.3178
2023-05-14T08:58:32.843Z,72.5882
2023-05-14T08:59:33.938Z,71.6324
2023-05-14T09:00:35.012Z,71.9609
2023-05-14T09:01:36.089Z,71.4566
2023-05-14T09:02:37.150Z,71.0479
2023-05-14T09:03:38.517Z,71.1881
2023-05-14T09:04:40.654Z,71.0309
2023-05-14T09:05:41.726Z,72.3348
2023-05-14T09:06:43.025Z,71.8370
2023-05-14T09:07:44.104Z,72.2432
2023-05-14T09:08:45.217Z,72.0530
2023-05-14T09:09:46.317Z,71.7964
2023-05-14T09:10:47.421Z,70.0629
2023-05-14T09:11:48.535Z,70.9294
2023-05-14T09:12:49.598Z,70.5935
2023-05-14T09:13:50.734Z,70.3004
2023-05-14T09:14:51.944Z,70.8992
2023-05-14T09:15:53.048Z,69.9250
2023-05-14T09:16:54.206Z,68.9219
2023-05-14T09:17:55.396Z,68.3298
2023-05-14T09:18:56.559Z,67.9229
2023-05-14T09:19:57.663Z,68.6500
2023-05-14T09:20:58.777Z,68.7441
2023-05-14T09:21:59.858Z,69.6060
2023-05-14T09:23:00.934Z,67.5515
2023-05-14T09:24:02.042Z,67.6350
2023-05-14T09:25:03.120Z,68.3519
2023-05-14T09:26:04.171Z,68.0928
2023-05-14T09:27:05.325Z,68.7378
2023-05-14T09:28:06.403Z,68.0507
2023-05-14T09:29:07.482Z,67.9079
2023-05-14T09:30:08.572Z,67.9637
2023-05-14T09:31:09.814Z,68.4164
2023-05-14T09:32:10.872Z,68.8752
2023-05-14T09:33:12.009Z,68.9863
2023-05-14T09:34:13.107Z,68.5116
2023-05-14T09:35:14.165Z,68.9681
2023-05-14T09:36:15.429Z,68.9196
2023-05-14T09:37:16.492Z,69.0544
2023-05-14T09:38:17.554Z,68.2704
2023-05-14T09:39:18.779Z,68.1243
2023-05-14T09:40:19.821Z,68.9109
2023-05-14T09:41:20.878Z,69.2163
2023-05-14T09:42:21.961Z,68.4858
2023-05-14T09:43:23.326Z,68.3610
2023-05-14T09:44:24.355Z,68.1510
2023-05-14T09:45:25.443Z,68.5541
2023-05-14T09:46:26.508Z,68.7727
2023-05-14T09:47:27.723Z,69.1063
2023-05-14T09:48:28.995Z,68.6783
2023-05-14T09:49:30.050Z,67.9633
2023-05-14T09:50:31.141Z,67.9906
2023-05-14T09:51:32.151Z,68.7213
2023-05-14T09:52:33.292Z,69.2135
2023-05-14T09:53:34.328Z,67.7452
2023-05-14T09:54:35.593Z,67.8903
2023-05-14T09:55:36.622Z,68.8267
2023-05-14T09:56:37.627Z,69.0606
2023-05-14T09:57:38.775Z,69.3609
2023-05-14T09:58:39.866Z,68.9023
2023-05-14T09:59:40.894Z,68.5188
2023-05-14T10:00:41.952Z,68.7004
2023-05-14T10:01:43.310Z,68.9740
2023-05-14T10:02:44.474Z,69.4591
2023-05-14T10:03:46.519Z,68.3791
2023-05-14T10:04:47.648Z,68.1575
2023-05-14T10:05:48.739Z,68.4201
2023-05-14T10:06:49.836Z,68.7898
2023-05-14T10:07:50.872Z,68.6520
2023-05-14T10:08:51.947Z,69.4361
2023-05-14T10:09:53.230Z,68.8589
2023-05-14T10:10:54.355Z,69.8823
2023-05-14T10:11:55.468Z,70.3554
2023-05-14T10:12:56.523Z,68.0482
2023-05-14T10:13:57.596Z,69.0131
2023-05-14T10:14:58.820Z,69.4582
2023-05-14T10:15:59.872Z,69.9982
2023-05-14T10:17:00.989Z,70.2616
2023-05-14T10:18:02.052Z,70.5891
2023-05-14T10:19:04.146Z,70.6213
2023-05-14T10:20:05.327Z,70.9698
2023-05-14T10:21:07.435Z,69.5632
2023-05-14T10:22:08.451Z,69.7603
2023-05-14T10:23:09.541Z,69.2065
2023-05-14T10:24:10.582Z,69.5970
2023-05-14T10:25:11.658Z,70.1633
2023-05-14T10:26:12.889Z,68.7496
2023-05-14T10:27:14.021Z,67.9264
2023-05-14T10:28:15.070Z,68.2984
2023-05-14T10:29:16.292Z,67.3128
2023-05-14T10:30:17.295Z,66.2699
2023-05-14T10:31:18.539Z,67.3981
2023-05-14T10:32:19.571Z,68.0151
2023-05-14T10:33:20.634Z,67.6885
2023-05-14T10:34:21.668Z,66.9573
2023-05-14T10:35:22.764Z,67.7690
2023-05-14T10:36:23.841Z,68.1823
2023-05-14T10:37:25.078Z,67.2097
2023-05-14T10:38:26.143Z,67.1663
2023-05-14T10:39:27.206Z,66.9472
2023-05-14T10:40:28.266Z,66.2628
2023-05-14T10:41:29.429Z,67.1386
2023-05-14T10:42:30.550Z,67.4603
2023-05-14T10:43:31.675Z,68.3539
2023-05-14T10:44:32.744Z,69.0904
2023-05-14T10:45:33.825Z,69.4407
2023-05-14T10:46:35.145Z,70.2734
2023-05-14T10:47:37.287Z,70.2063
2023-05-14T10:48:39.274Z,70.8910
2023-05-14T10:49:43.831Z,69.6740
2023-05-14T10:50:41.901Z,68.9723
2023-05-14T10:51:43.093Z,70.8701
2023-05-14T10:52:45.079Z,71.3353
2023-05-14T10:53:46.139Z,69.6361
2023-05-14T10:54:47.278Z,67.8932
2023-05-14T10:55:48.429Z,67.5931
2023-05-14T10:56:49.554Z,67.9701
2023-05-14T10:57:50.758Z,67.9797
2023-05-14T10:58:51.872Z,68.2326
2023-05-14T10:59:52.931Z,66.5142
2023-05-14T11:00:54.072Z,66.1695
2023-05-14T11:01:55.208Z,65.9801
2023-05-14T11:02:56.665Z,67.1292
2023-05-14T11:03:57.823Z,68.2668
2023-05-14T11:04:58.932Z,67.0148
2023-05-14T11:06:00.045Z,65.4435
2023-05-14T11:07:01.095Z,64.8920
2023-05-14T11:08:02.167Z,65.3531
2023-05-14T11:09:03.239Z,66.1303
2023-05-14T11:10:04.281Z,66.1259
2023-05-14T11:11:05.396Z,65.4414
2023-05-14T11:12:06.452Z,66.7994
2023-05-14T11:13:07.560Z,67.5390
2023-05-14T11:14:10.144Z,67.0704
2023-05-14T11:15:11.449Z,66.5355
2023-05-14T11:16:22.825Z,66.5358
2023-05-14T11:17:13.362Z,65.4112
2023-05-14T11:18:15.535Z,65.8194
2023-05-14T11:19:16.733Z,65.5707
2023-05-14T11:20:17.981Z,65.9833
2023-05-14T11:21:19.114Z,65.3541
2023-05-14T11:22:20.280Z,64.6633
2023-05-14T11:23:21.354Z,64.2614
2023-05-14T11:24:22.375Z,63.1222
2023-05-14T11:25:23.638Z,62.3694
2023-05-14T11:26:24.853Z,62.7422
2023-05-14T11:27:26.128Z,62.1725
2023-05-14T11:28:27.319Z,62.6707
2023-05-14T11:29:28.457Z,63.4689
2023-05-14T11:30:29.929Z,65.4102
2023-05-14T11:31:31.279Z,63.6850
2023-05-14T11:32:33.475Z,60.2081
2023-05-14T11:33:35.656Z,60.9533
2023-05-14T11:34:36.939Z,63.1169
2023-05-14T11:35:38.044Z,61.0546
2023-05-14T11:36:39.117Z,60.7523
2023-05-14T11:37:40.371Z,61.2048
2023-05-14T11:38:41.455Z,62.2809
2023-05-14T11:39:42.606Z,62.7776
2023-05-14T11:40:44.003Z,62.5417
2023-05-14T11:41:45.065Z,62.7330
2023-05-14T11:42:46.204Z,63.0209
2023-05-14T11:43:47.283Z,62.7997
2023-05-14T11:44:48.450Z,63.2316
2023-05-14T11:45:49.724Z,63.2562
2023-05-14T11:46:50.856Z,63.8583
2023-05-14T11:47:51.976Z,66.0669
2023-05-14T11:48:54.088Z,67.3194
2023-05-14T11:49:55.190Z,66.5161
2023-05-14T11:50:56.262Z,67.8784
2023-05-14T11:51:57.418Z,69.5041
2023-05-14T11:52:58.465Z,71.1861
2023-05-14T11:53:59.553Z,69.7537
2023-05-14T11:55:00.629Z,71.2858
2023-05-14T11:56:01.729Z,70.4970
2023-05-14T11:57:03.002Z,71.1299
2023-05-14T11:58:04.113Z,71.3351
2023-05-14T11:59:05.153Z,71.3470
2023-05-14T12:00:06.310Z,71.6931
2023-05-14T12:01:07.393Z,72.8687
2023-05-14T12:02:08.506Z,74.3460
2023-05-14T12:03:09.697Z,74.5374
2023-05-14T12:04:10.995Z,72.8687
2023-05-14T12:05:12.157Z,72.7021
2023-05-14T12:06:13.283Z,71.7658
2023-05-14T12:07:14.359Z,71.2838
2023-05-14T12:08:15.428Z,70.5796
2023-05-14T12:09:16.783Z,69.3430
2023-05-14T12:10:17.888Z,72.1125
2023-05-14T12:11:19.006Z,70.2511
2023-05-14T12:12:20.098Z,68.4481
2023-05-14T12:13:21.146Z,68.9368
2023-05-14T12:14:22.312Z,68.9341
2023-05-14T12:15:23.409Z,70.9921
2023-05-14T12:16:24.814Z,69.1433
2023-05-14T12:17:26.905Z,69.2853
2023-05-14T12:18:29.061Z,69.5143
2023-05-14T12:19:31.179Z,69.7088
2023-05-14T12:20:32.361Z,71.6953
2023-05-14T12:21:33.459Z,69.7361
2023-05-14T12:22:36.868Z,68.9915
2023-05-14T12:23:34.866Z,67.6098
2023-05-14T12:24:36.214Z,65.6624
2023-05-14T12:25:37.301Z,65.0381
2023-05-14T12:26:38.624Z,65.5536
2023-05-14T12:27:39.740Z,66.1250
2023-05-14T12:28:40.849Z,68.2153
2023-05-14T12:29:41.935Z,67.8401